Malone-Dufort Airport

KMAL · 纽约州, 美国

使用的METAR站距离机场23 NM。
罗盘
风向 的 Malone-Dufort Airport 5/23
风: 0 kt, 0 beaufort


改变
0 ft 2.000 4.000 6.000 8.000 10.000
Cloud Cloud Cloud Cloud Cloud Cloud
BKN 6.500
METAR KMSS 220353Z AUTO 00000KT 10SM BKN065 14/13 A3008 RMK AO2 SLP185 T01440133

METAR Malone-Dufort Airport - KMAL

Malone-Dufort Airport是,美国中的中型机场。 该机场位于纬度44,85363和经度-74,32864。 该机场有2条跑道: 5/23 和 14/32. 本场的ICAO机场代码为KMAL。 该机场的本地机场标识(FAA LID)为MAL。 机场在Boston FIR中。

该航空气象观测是针对Massena International-Richards Field在2024年7月21日 23:53, 当地时间进行的。

机场观察

可变方向的风很小或没有风。

可见度为10 mi。

有碎云在6.500 ft的高度。 破损或更高的上限为6.500 ft。

温度和风寒是14 °C。 露点为13 °C,相对湿度为94%。 海平面上的气压为30,08 inHg (QNH)。

白天

今天,太阳从05:33升起,在20:34降落。 这适用于Malone-Dufort Airport,世界夏令时可能有所不同。 当地时间与世界标准时间之间的时差为-4 小时。 夏令时目前正在进行中。

公司介绍

我们没有关于这个机场的公司信息。

体会

到Vliegles.nl去找飞行课程,跳伞和其他飞行体验。 浏览页面,了解Malone-Dufort Airport附近所有可用的活动。 你也可以使用搜索功能来寻找你所在地附近的特定飞行课程、跳伞或其他飞行体验。

跑道

Id 标题 侧风 逆风 侧风 %
5/23 037°-217°
14/32 127°-307°

逆风成分最大的方向会被突出显示,并用于横风计算。 这并不一定意味着这个方向在使用。

乌云

6.500 ft BKN 碎云

温度 & 天气

温度 14,4 °C
露点 13,3 °C
相对湿度 94%
Kp-index 1 (0-9)

评论

AO2自动气象站,可确定降水类型
SLP185海平面压力为30,08 inHg (30,08 inHg)
T01440133温度为14,4 °C (57,9 °F),露点为13,3 °C (55,9 °F)

白天

日出
05:34 (4:49)
中午
13:05
日落
20:36

小工具

你想在你的网站上有一个关于Malone-Dufort Airport的当前航空天气(METAR)的小部件吗?

显示HTML代码
报告变更